sensor_id;sensor_type;location;lat;lon;timestamp;P1;durP1;ratioP1;P2;durP2;ratioP2
21166;SDS011;10741;52.272;9.580;2023-03-03T00:02:22;39.03;;;19.40;;
21166;SDS011;10741;52.272;9.580;2023-03-03T00:04:47;43.40;;;19.93;;
21166;SDS011;10741;52.272;9.580;2023-03-03T00:07:13;39.50;;;19.80;;
21166;SDS011;10741;52.272;9.580;2023-03-03T00:09:45;42.50;;;19.70;;
21166;SDS011;10741;52.272;9.580;2023-03-03T00:12:22;42.43;;;19.77;;
21166;SDS011;10741;52.272;9.580;2023-03-03T00:14:53;39.70;;;19.60;;
21166;SDS011;10741;52.272;9.580;2023-03-03T00:17:23;45.27;;;21.33;;
21166;SDS011;10741;52.272;9.580;2023-03-03T00:19:54;46.20;;;20.63;;
21166;SDS011;10741;52.272;9.580;2023-03-03T00:25:00;45.40;;;20.27;;
21166;SDS011;10741;52.272;9.580;2023-03-03T00:28:42;43.37;;;18.77;;
21166;SDS011;10741;52.272;9.580;2023-03-03T00:30:46;42.13;;;18.97;;
21166;SDS011;10741;52.272;9.580;2023-03-03T00:33:19;44.73;;;18.83;;
21166;SDS011;10741;52.272;9.580;2023-03-03T00:35:52;43.87;;;18.73;;
21166;SDS011;10741;52.272;9.580;2023-03-03T00:38:19;46.50;;;19.57;;
21166;SDS011;10741;52.272;9.580;2023-03-03T00:40:45;42.10;;;18.77;;
21166;SDS011;10741;52.272;9.580;2023-03-03T00:43:19;44.30;;;17.67;;
21166;SDS011;10741;52.272;9.580;2023-03-03T00:45:51;39.83;;;18.33;;
21166;SDS011;10741;52.272;9.580;2023-03-03T00:48:35;42.27;;;18.43;;
21166;SDS011;10741;52.272;9.580;2023-03-03T00:53:55;38.67;;;16.10;;
21166;SDS011;10741;52.272;9.580;2023-03-03T00:56:22;43.03;;;16.43;;
21166;SDS011;10741;52.272;9.580;2023-03-03T00:58:48;36.70;;;16.33;;
21166;SDS011;10741;52.272;9.580;2023-03-03T01:01:14;36.30;;;17.00;;
21166;SDS011;10741;52.272;9.580;2023-03-03T01:03:41;38.97;;;17.27;;
21166;SDS011;10741;52.272;9.580;2023-03-03T01:06:07;28.73;;;14.70;;
21166;SDS011;10741;52.272;9.580;2023-03-03T01:08:33;42.17;;;16.60;;
21166;SDS011;10741;52.272;9.580;2023-03-03T01:11:00;35.23;;;15.73;;
21166;SDS011;10741;52.272;9.580;2023-03-03T01:13:32;34.13;;;15.30;;
21166;SDS011;10741;52.272;9.580;2023-03-03T01:16:00;32.53;;;15.33;;
21166;SDS011;10741;52.272;9.580;2023-03-03T01:18:27;44.23;;;17.27;;
21166;SDS011;10741;52.272;9.580;2023-03-03T01:20:53;35.30;;;16.50;;
21166;SDS011;10741;52.272;9.580;2023-03-03T01:23:19;38.43;;;16.57;;
21166;SDS011;10741;52.272;9.580;2023-03-03T01:25:45;46.43;;;17.77;;
21166;SDS011;10741;52.272;9.580;2023-03-03T01:28:11;43.73;;;16.47;;
21166;SDS011;10741;52.272;9.580;2023-03-03T01:30:37;34.60;;;16.37;;
21166;SDS011;10741;52.272;9.580;2023-03-03T01:33:03;56.43;;;17.07;;
21166;SDS011;10741;52.272;9.580;2023-03-03T01:35:29;41.63;;;16.10;;
21166;SDS011;10741;52.272;9.580;2023-03-03T01:37:55;39.73;;;16.60;;
21166;SDS011;10741;52.272;9.580;2023-03-03T01:40:29;32.13;;;14.90;;
21166;SDS011;10741;52.272;9.580;2023-03-03T01:42:57;37.57;;;15.43;;
21166;SDS011;10741;52.272;9.580;2023-03-03T01:45:26;31.20;;;15.33;;
21166;SDS011;10741;52.272;9.580;2023-03-03T01:48:00;39.93;;;16.83;;
21166;SDS011;10741;52.272;9.580;2023-03-03T01:53:16;33.50;;;15.60;;
21166;SDS011;10741;52.272;9.580;2023-03-03T01:55:44;32.37;;;15.13;;
21166;SDS011;10741;52.272;9.580;2023-03-03T01:58:20;32.90;;;14.87;;
21166;SDS011;10741;52.272;9.580;2023-03-03T02:00:50;36.13;;;15.77;;
21166;SDS011;10741;52.272;9.580;2023-03-03T02:03:21;48.47;;;17.70;;
21166;SDS011;10741;52.272;9.580;2023-03-03T02:05:48;42.83;;;18.17;;
21166;SDS011;10741;52.272;9.580;2023-03-03T02:08:18;45.53;;;18.03;;
21166;SDS011;10741;52.272;9.580;2023-03-03T02:10:50;42.27;;;18.63;;
21166;SDS011;10741;52.272;9.580;2023-03-03T02:13:16;40.10;;;17.17;;
21166;SDS011;10741;52.272;9.580;2023-03-03T02:15:42;40.23;;;18.00;;
21166;SDS011;10741;52.272;9.580;2023-03-03T02:18:09;53.13;;;19.03;;
21166;SDS011;10741;52.272;9.580;2023-03-03T02:20:45;49.57;;;18.87;;
21166;SDS011;10741;52.272;9.580;2023-03-03T02:23:33;46.33;;;18.67;;
21166;SDS011;10741;52.272;9.580;2023-03-03T02:26:16;50.03;;;17.03;;
21166;SDS011;10741;52.272;9.580;2023-03-03T02:28:46;47.43;;;17.20;;
21166;SDS011;10741;52.272;9.580;2023-03-03T02:31:13;44.40;;;17.60;;
21166;SDS011;10741;52.272;9.580;2023-03-03T02:33:42;47.40;;;18.83;;
21166;SDS011;10741;52.272;9.580;2023-03-03T02:36:12;50.67;;;20.00;;
21166;SDS011;10741;52.272;9.580;2023-03-03T02:38:44;44.00;;;19.27;;
21166;SDS011;10741;52.272;9.580;2023-03-03T02:41:34;44.73;;;18.63;;
21166;SDS011;10741;52.272;9.580;2023-03-03T02:44:12;44.20;;;17.90;;
21166;SDS011;10741;52.272;9.580;2023-03-03T02:46:41;50.87;;;19.63;;
21166;SDS011;10741;52.272;9.580;2023-03-03T02:49:09;46.33;;;19.53;;
21166;SDS011;10741;52.272;9.580;2023-03-03T02:51:37;50.07;;;17.90;;
21166;SDS011;10741;52.272;9.580;2023-03-03T02:54:04;45.93;;;20.10;;
21166;SDS011;10741;52.272;9.580;2023-03-03T02:56:30;52.20;;;20.00;;
21166;SDS011;10741;52.272;9.580;2023-03-03T02:58:56;47.43;;;19.83;;
21166;SDS011;10741;52.272;9.580;2023-03-03T03:01:22;57.30;;;20.57;;
21166;SDS011;10741;52.272;9.580;2023-03-03T03:03:48;45.27;;;18.67;;
21166;SDS011;10741;52.272;9.580;2023-03-03T03:06:14;45.97;;;18.93;;
21166;SDS011;10741;52.272;9.580;2023-03-03T03:08:40;51.40;;;19.43;;
21166;SDS011;10741;52.272;9.580;2023-03-03T03:11:05;48.80;;;19.47;;
21166;SDS011;10741;52.272;9.580;2023-03-03T03:13:32;50.97;;;19.03;;
21166;SDS011;10741;52.272;9.580;2023-03-03T03:15:58;57.73;;;19.20;;
21166;SDS011;10741;52.272;9.580;2023-03-03T03:18:24;54.43;;;18.90;;
21166;SDS011;10741;52.272;9.580;2023-03-03T03:20:50;44.93;;;19.17;;
21166;SDS011;10741;52.272;9.580;2023-03-03T03:23:16;46.30;;;17.97;;
21166;SDS011;10741;52.272;9.580;2023-03-03T03:25:42;46.10;;;18.27;;
21166;SDS011;10741;52.272;9.580;2023-03-03T03:28:11;46.97;;;19.07;;
21166;SDS011;10741;52.272;9.580;2023-03-03T03:30:39;43.17;;;18.57;;
21166;SDS011;10741;52.272;9.580;2023-03-03T03:33:04;50.30;;;18.93;;
21166;SDS011;10741;52.272;9.580;2023-03-03T03:35:34;47.67;;;19.10;;
21166;SDS011;10741;52.272;9.580;2023-03-03T03:38:00;51.57;;;19.30;;
21166;SDS011;10741;52.272;9.580;2023-03-03T03:40:26;50.73;;;18.97;;
21166;SDS011;10741;52.272;9.580;2023-03-03T03:42:52;46.10;;;18.47;;
21166;SDS011;10741;52.272;9.580;2023-03-03T03:45:18;40.97;;;17.70;;
21166;SDS011;10741;52.272;9.580;2023-03-03T03:47:44;40.37;;;17.27;;
21166;SDS011;10741;52.272;9.580;2023-03-03T03:50:10;42.43;;;17.00;;
21166;SDS011;10741;52.272;9.580;2023-03-03T03:52:36;47.70;;;17.40;;
21166;SDS011;10741;52.272;9.580;2023-03-03T03:55:03;42.40;;;17.33;;
21166;SDS011;10741;52.272;9.580;2023-03-03T03:57:29;41.90;;;18.27;;
21166;SDS011;10741;52.272;9.580;2023-03-03T03:59:55;43.27;;;17.67;;
21166;SDS011;10741;52.272;9.580;2023-03-03T04:02:20;46.03;;;18.47;;
21166;SDS011;10741;52.272;9.580;2023-03-03T04:04:46;46.67;;;17.93;;
21166;SDS011;10741;52.272;9.580;2023-03-03T04:07:12;48.63;;;19.13;;
21166;SDS011;10741;52.272;9.580;2023-03-03T04:09:38;46.50;;;17.40;;
21166;SDS011;10741;52.272;9.580;2023-03-03T04:12:04;44.93;;;19.17;;
21166;SDS011;10741;52.272;9.580;2023-03-03T04:14:29;45.50;;;17.90;;
21166;SDS011;10741;52.272;9.580;2023-03-03T04:16:57;52.00;;;18.70;;
21166;SDS011;10741;52.272;9.580;2023-03-03T04:19:22;39.87;;;17.63;;
21166;SDS011;10741;52.272;9.580;2023-03-03T04:21:48;49.37;;;18.33;;
21166;SDS011;10741;52.272;9.580;2023-03-03T04:24:15;48.17;;;19.13;;
21166;SDS011;10741;52.272;9.580;2023-03-03T04:26:40;50.17;;;18.53;;
21166;SDS011;10741;52.272;9.580;2023-03-03T04:29:06;41.67;;;17.73;;
21166;SDS011;10741;52.272;9.580;2023-03-03T04:31:32;42.27;;;16.37;;
21166;SDS011;10741;52.272;9.580;2023-03-03T04:33:58;44.47;;;17.50;;
21166;SDS011;10741;52.272;9.580;2023-03-03T04:36:23;41.77;;;17.37;;
21166;SDS011;10741;52.272;9.580;2023-03-03T04:38:49;41.03;;;16.73;;
21166;SDS011;10741;52.272;9.580;2023-03-03T04:41:15;45.03;;;17.37;;
21166;SDS011;10741;52.272;9.580;2023-03-03T04:43:41;44.93;;;18.60;;
21166;SDS011;10741;52.272;9.580;2023-03-03T04:46:07;45.63;;;18.13;;
21166;SDS011;10741;52.272;9.580;2023-03-03T04:48:32;48.20;;;18.50;;
21166;SDS011;10741;52.272;9.580;2023-03-03T04:50:58;38.87;;;15.90;;
21166;SDS011;10741;52.272;9.580;2023-03-03T04:53:24;43.27;;;17.30;;
21166;SDS011;10741;52.272;9.580;2023-03-03T04:55:50;45.77;;;17.17;;
21166;SDS011;10741;52.272;9.580;2023-03-03T04:58:17;44.57;;;18.17;;
21166;SDS011;10741;52.272;9.580;2023-03-03T05:00:43;44.10;;;16.83;;
21166;SDS011;10741;52.272;9.580;2023-03-03T05:03:18;49.70;;;18.13;;
21166;SDS011;10741;52.272;9.580;2023-03-03T05:05:45;47.17;;;18.47;;
21166;SDS011;10741;52.272;9.580;2023-03-03T05:08:12;47.50;;;18.20;;
21166;SDS011;10741;52.272;9.580;2023-03-03T05:10:38;50.07;;;19.53;;
21166;SDS011;10741;52.272;9.580;2023-03-03T05:13:05;50.60;;;19.33;;
21166;SDS011;10741;52.272;9.580;2023-03-03T05:15:31;56.00;;;20.20;;
21166;SDS011;10741;52.272;9.580;2023-03-03T05:17:57;63.27;;;20.97;;
21166;SDS011;10741;52.272;9.580;2023-03-03T05:20:23;52.10;;;19.23;;
21166;SDS011;10741;52.272;9.580;2023-03-03T05:22:50;56.27;;;20.90;;
21166;SDS011;10741;52.272;9.580;2023-03-03T05:25:16;53.97;;;20.10;;
21166;SDS011;10741;52.272;9.580;2023-03-03T05:27:41;56.00;;;19.50;;
21166;SDS011;10741;52.272;9.580;2023-03-03T05:30:08;54.37;;;19.47;;
21166;SDS011;10741;52.272;9.580;2023-03-03T05:32:35;51.97;;;18.23;;
21166;SDS011;10741;52.272;9.580;2023-03-03T05:35:02;56.53;;;19.73;;
21166;SDS011;10741;52.272;9.580;2023-03-03T05:37:28;54.57;;;19.37;;
21166;SDS011;10741;52.272;9.580;2023-03-03T05:39:54;56.20;;;19.47;;
21166;SDS011;10741;52.272;9.580;2023-03-03T05:42:19;49.03;;;19.40;;
21166;SDS011;10741;52.272;9.580;2023-03-03T05:44:46;53.30;;;19.90;;
21166;SDS011;10741;52.272;9.580;2023-03-03T05:47:12;52.60;;;17.73;;
21166;SDS011;10741;52.272;9.580;2023-03-03T05:49:37;47.87;;;18.10;;
21166;SDS011;10741;52.272;9.580;2023-03-03T05:52:03;47.47;;;18.30;;
21166;SDS011;10741;52.272;9.580;2023-03-03T05:54:30;45.57;;;18.13;;
21166;SDS011;10741;52.272;9.580;2023-03-03T05:56:55;59.70;;;21.47;;
21166;SDS011;10741;52.272;9.580;2023-03-03T06:02:28;47.33;;;18.33;;
21166;SDS011;10741;52.272;9.580;2023-03-03T06:04:54;55.37;;;19.37;;
21166;SDS011;10741;52.272;9.580;2023-03-03T06:07:20;55.37;;;18.23;;
21166;SDS011;10741;52.272;9.580;2023-03-03T06:09:45;52.20;;;18.50;;
21166;SDS011;10741;52.272;9.580;2023-03-03T06:12:11;48.13;;;18.00;;
21166;SDS011;10741;52.272;9.580;2023-03-03T06:14:37;50.47;;;17.87;;
21166;SDS011;10741;52.272;9.580;2023-03-03T06:17:03;52.50;;;18.23;;
21166;SDS011;10741;52.272;9.580;2023-03-03T06:19:30;50.07;;;19.03;;
21166;SDS011;10741;52.272;9.580;2023-03-03T06:21:56;52.87;;;20.13;;
21166;SDS011;10741;52.272;9.580;2023-03-03T06:24:21;59.73;;;21.80;;
21166;SDS011;10741;52.272;9.580;2023-03-03T06:26:49;56.77;;;20.30;;
21166;SDS011;10741;52.272;9.580;2023-03-03T06:29:16;51.33;;;19.27;;
21166;SDS011;10741;52.272;9.580;2023-03-03T06:31:42;55.93;;;19.73;;
21166;SDS011;10741;52.272;9.580;2023-03-03T06:34:08;56.37;;;19.77;;
21166;SDS011;10741;52.272;9.580;2023-03-03T06:36:34;57.33;;;19.67;;
21166;SDS011;10741;52.272;9.580;2023-03-03T06:39:00;53.27;;;20.67;;
21166;SDS011;10741;52.272;9.580;2023-03-03T06:41:26;52.70;;;19.47;;
21166;SDS011;10741;52.272;9.580;2023-03-03T06:43:51;60.63;;;21.33;;
21166;SDS011;10741;52.272;9.580;2023-03-03T06:46:17;57.40;;;21.03;;
21166;SDS011;10741;52.272;9.580;2023-03-03T06:48:43;58.93;;;21.83;;
21166;SDS011;10741;52.272;9.580;2023-03-03T06:51:51;56.23;;;21.30;;
21166;SDS011;10741;52.272;9.580;2023-03-03T06:54:05;58.80;;;19.60;;
21166;SDS011;10741;52.272;9.580;2023-03-03T06:56:38;63.47;;;21.70;;
21166;SDS011;10741;52.272;9.580;2023-03-03T06:59:09;65.37;;;22.03;;
21166;SDS011;10741;52.272;9.580;2023-03-03T07:01:38;57.07;;;21.00;;
21166;SDS011;10741;52.272;9.580;2023-03-03T07:07:14;50.13;;;18.87;;
21166;SDS011;10741;52.272;9.580;2023-03-03T07:09:51;48.13;;;18.23;;
21166;SDS011;10741;52.272;9.580;2023-03-03T07:12:20;50.50;;;20.33;;
21166;SDS011;10741;52.272;9.580;2023-03-03T07:14:49;49.50;;;19.10;;
21166;SDS011;10741;52.272;9.580;2023-03-03T07:17:20;53.67;;;20.53;;
21166;SDS011;10741;52.272;9.580;2023-03-03T07:19:48;50.23;;;19.00;;
21166;SDS011;10741;52.272;9.580;2023-03-03T07:22:15;52.67;;;18.73;;
21166;SDS011;10741;52.272;9.580;2023-03-03T07:24:43;46.97;;;19.60;;
21166;SDS011;10741;52.272;9.580;2023-03-03T07:27:13;48.80;;;20.00;;
21166;SDS011;10741;52.272;9.580;2023-03-03T07:29:48;42.23;;;17.60;;
21166;SDS011;10741;52.272;9.580;2023-03-03T07:32:26;38.30;;;15.93;;
21166;SDS011;10741;52.272;9.580;2023-03-03T07:37:44;43.20;;;16.60;;
21166;SDS011;10741;52.272;9.580;2023-03-03T07:40:34;40.10;;;17.27;;
21166;SDS011;10741;52.272;9.580;2023-03-03T07:43:11;38.87;;;16.67;;
21166;SDS011;10741;52.272;9.580;2023-03-03T07:48:40;41.60;;;18.03;;
21166;SDS011;10741;52.272;9.580;2023-03-03T07:56:52;42.67;;;18.20;;
21166;SDS011;10741;52.272;9.580;2023-03-03T07:59:30;43.87;;;18.37;;
21166;SDS011;10741;52.272;9.580;2023-03-03T08:02:00;41.67;;;18.77;;
21166;SDS011;10741;52.272;9.580;2023-03-03T08:04:43;40.40;;;18.03;;
21166;SDS011;10741;52.272;9.580;2023-03-03T08:07:18;44.20;;;18.87;;
21166;SDS011;10741;52.272;9.580;2023-03-03T08:09:49;40.13;;;18.13;;
21166;SDS011;10741;52.272;9.580;2023-03-03T08:12:40;41.10;;;18.83;;
21166;SDS011;10741;52.272;9.580;2023-03-03T08:15:11;46.63;;;20.33;;
21166;SDS011;10741;52.272;9.580;2023-03-03T08:17:44;41.13;;;19.03;;
21166;SDS011;10741;52.272;9.580;2023-03-03T08:23:03;42.30;;;18.10;;
21166;SDS011;10741;52.272;9.580;2023-03-03T08:25:28;40.10;;;18.23;;
21166;SDS011;10741;52.272;9.580;2023-03-03T08:27:54;44.07;;;19.43;;
21166;SDS011;10741;52.272;9.580;2023-03-03T08:30:20;39.43;;;18.77;;
21166;SDS011;10741;52.272;9.580;2023-03-03T08:32:46;40.27;;;18.07;;
21166;SDS011;10741;52.272;9.580;2023-03-03T08:35:11;39.13;;;17.93;;
21166;SDS011;10741;52.272;9.580;2023-03-03T08:37:37;39.87;;;19.27;;
21166;SDS011;10741;52.272;9.580;2023-03-03T08:40:03;38.27;;;18.83;;
21166;SDS011;10741;52.272;9.580;2023-03-03T08:42:29;38.30;;;17.97;;
21166;SDS011;10741;52.272;9.580;2023-03-03T08:44:55;38.87;;;18.23;;
21166;SDS011;10741;52.272;9.580;2023-03-03T08:47:21;39.97;;;19.00;;
21166;SDS011;10741;52.272;9.580;2023-03-03T08:49:46;39.17;;;19.03;;
21166;SDS011;10741;52.272;9.580;2023-03-03T08:52:12;34.63;;;16.37;;
21166;SDS011;10741;52.272;9.580;2023-03-03T08:54:38;31.77;;;15.60;;
21166;SDS011;10741;52.272;9.580;2023-03-03T08:57:04;32.30;;;16.60;;
21166;SDS011;10741;52.272;9.580;2023-03-03T08:59:29;30.67;;;16.23;;
21166;SDS011;10741;52.272;9.580;2023-03-03T09:01:55;32.37;;;16.63;;
21166;SDS011;10741;52.272;9.580;2023-03-03T09:04:21;30.50;;;16.43;;
21166;SDS011;10741;52.272;9.580;2023-03-03T09:06:47;28.87;;;15.00;;
21166;SDS011;10741;52.272;9.580;2023-03-03T09:09:13;27.60;;;14.70;;
21166;SDS011;10741;52.272;9.580;2023-03-03T09:11:39;26.93;;;13.57;;
21166;SDS011;10741;52.272;9.580;2023-03-03T09:14:12;25.63;;;13.83;;
21166;SDS011;10741;52.272;9.580;2023-03-03T09:16:41;26.23;;;14.23;;
21166;SDS011;10741;52.272;9.580;2023-03-03T09:21:52;25.70;;;13.33;;
21166;SDS011;10741;52.272;9.580;2023-03-03T09:24:23;25.47;;;13.77;;
21166;SDS011;10741;52.272;9.580;2023-03-03T09:26:59;24.57;;;13.47;;
21166;SDS011;10741;52.272;9.580;2023-03-03T09:29:29;26.13;;;13.77;;
21166;SDS011;10741;52.272;9.580;2023-03-03T09:32:46;25.27;;;13.93;;
21166;SDS011;10741;52.272;9.580;2023-03-03T09:34:53;24.70;;;13.30;;
21166;SDS011;10741;52.272;9.580;2023-03-03T09:37:22;21.77;;;12.80;;
21166;SDS011;10741;52.272;9.580;2023-03-03T09:39:56;25.47;;;14.40;;
21166;SDS011;10741;52.272;9.580;2023-03-03T09:42:25;24.37;;;14.23;;
21166;SDS011;10741;52.272;9.580;2023-03-03T09:45:04;23.07;;;12.17;;
21166;SDS011;10741;52.272;9.580;2023-03-03T09:47:50;22.03;;;12.37;;
21166;SDS011;10741;52.272;9.580;2023-03-03T09:56:43;21.37;;;12.00;;
21166;SDS011;10741;52.272;9.580;2023-03-03T09:59:27;21.77;;;12.43;;
21166;SDS011;10741;52.272;9.580;2023-03-03T10:02:08;24.37;;;12.90;;
21166;SDS011;10741;52.272;9.580;2023-03-03T10:13:23;22.03;;;12.73;;
21166;SDS011;10741;52.272;9.580;2023-03-03T10:19:00;22.87;;;12.53;;
21166;SDS011;10741;52.272;9.580;2023-03-03T10:21:46;21.17;;;12.60;;
21166;SDS011;10741;52.272;9.580;2023-03-03T10:35:02;22.37;;;12.13;;
21166;SDS011;10741;52.272;9.580;2023-03-03T10:40:23;20.50;;;12.23;;
21166;SDS011;10741;52.272;9.580;2023-03-03T10:43:24;20.17;;;11.57;;
21166;SDS011;10741;52.272;9.580;2023-03-03T11:00:23;17.77;;;10.70;;
21166;SDS011;10741;52.272;9.580;2023-03-03T11:03:19;19.00;;;11.50;;
21166;SDS011;10741;52.272;9.580;2023-03-03T11:09:13;17.17;;;10.37;;
21166;SDS011;10741;52.272;9.580;2023-03-03T11:18:05;19.20;;;10.83;;
21166;SDS011;10741;52.272;9.580;2023-03-03T11:20:51;18.77;;;10.77;;
21166;SDS011;10741;52.272;9.580;2023-03-03T11:23:54;24.10;;;13.00;;
21166;SDS011;10741;52.272;9.580;2023-03-03T11:35:22;21.60;;;12.33;;
21166;SDS011;10741;52.272;9.580;2023-03-03T11:38:29;23.77;;;12.73;;
21166;SDS011;10741;52.272;9.580;2023-03-03T11:43:44;24.10;;;12.97;;
21166;SDS011;10741;52.272;9.580;2023-03-03T11:46:15;20.80;;;11.90;;
21166;SDS011;10741;52.272;9.580;2023-03-03T11:51:52;24.70;;;13.37;;
21166;SDS011;10741;52.272;9.580;2023-03-03T11:54:31;22.37;;;12.60;;
21166;SDS011;10741;52.272;9.580;2023-03-03T11:57:21;22.37;;;12.67;;
21166;SDS011;10741;52.272;9.580;2023-03-03T12:00:24;23.33;;;12.80;;
21166;SDS011;10741;52.272;9.580;2023-03-03T12:05:54;21.57;;;12.27;;
21166;SDS011;10741;52.272;9.580;2023-03-03T12:11:37;21.27;;;12.17;;
21166;SDS011;10741;52.272;9.580;2023-03-03T12:16:55;22.70;;;13.03;;
21166;SDS011;10741;52.272;9.580;2023-03-03T12:19:33;21.77;;;11.73;;
21166;SDS011;10741;52.272;9.580;2023-03-03T12:22:26;24.17;;;13.00;;
21166;SDS011;10741;52.272;9.580;2023-03-03T12:27:52;24.17;;;12.67;;
21166;SDS011;10741;52.272;9.580;2023-03-03T12:42:18;20.87;;;12.00;;
21166;SDS011;10741;52.272;9.580;2023-03-03T12:44:37;22.17;;;12.30;;
21166;SDS011;10741;52.272;9.580;2023-03-03T13:00:53;20.20;;;11.83;;
21166;SDS011;10741;52.272;9.580;2023-03-03T13:06:22;19.87;;;11.87;;
21166;SDS011;10741;52.272;9.580;2023-03-03T13:11:54;18.03;;;11.17;;
21166;SDS011;10741;52.272;9.580;2023-03-03T13:23:04;20.17;;;11.77;;
21166;SDS011;10741;52.272;9.580;2023-03-03T13:26:14;19.77;;;11.57;;
21166;SDS011;10741;52.272;9.580;2023-03-03T13:33:35;19.27;;;10.60;;
21166;SDS011;10741;52.272;9.580;2023-03-03T13:38:34;18.50;;;10.33;;
21166;SDS011;10741;52.272;9.580;2023-03-03T13:43:40;19.70;;;11.53;;
21166;SDS011;10741;52.272;9.580;2023-03-03T13:51:43;16.50;;;9.80;;
21166;SDS011;10741;52.272;9.580;2023-03-03T14:11:06;15.43;;;9.50;;
21166;SDS011;10741;52.272;9.580;2023-03-03T14:15:44;19.97;;;11.10;;
21166;SDS011;10741;52.272;9.580;2023-03-03T14:18:36;18.80;;;10.50;;
21166;SDS011;10741;52.272;9.580;2023-03-03T14:21:13;20.17;;;11.80;;
21166;SDS011;10741;52.272;9.580;2023-03-03T14:26:26;22.13;;;12.57;;
21166;SDS011;10741;52.272;9.580;2023-03-03T14:29:11;23.27;;;12.73;;
21166;SDS011;10741;52.272;9.580;2023-03-03T14:31:43;24.07;;;12.90;;
21166;SDS011;10741;52.272;9.580;2023-03-03T14:36:47;24.50;;;13.47;;
21166;SDS011;10741;52.272;9.580;2023-03-03T14:39:25;25.37;;;14.33;;
21166;SDS011;10741;52.272;9.580;2023-03-03T14:41:59;28.07;;;15.60;;
21166;SDS011;10741;52.272;9.580;2023-03-03T14:44:27;28.20;;;15.33;;
21166;SDS011;10741;52.272;9.580;2023-03-03T14:47:11;29.20;;;16.17;;
21166;SDS011;10741;52.272;9.580;2023-03-03T14:49:44;29.63;;;16.00;;
21166;SDS011;10741;52.272;9.580;2023-03-03T14:54:46;29.57;;;15.10;;
21166;SDS011;10741;52.272;9.580;2023-03-03T15:05:29;43.90;;;20.97;;
21166;SDS011;10741;52.272;9.580;2023-03-03T15:07:57;37.13;;;19.57;;
21166;SDS011;10741;52.272;9.580;2023-03-03T15:10:40;39.03;;;20.60;;
21166;SDS011;10741;52.272;9.580;2023-03-03T15:16:00;38.67;;;19.97;;
21166;SDS011;10741;52.272;9.580;2023-03-03T15:18:29;39.53;;;20.90;;
21166;SDS011;10741;52.272;9.580;2023-03-03T15:32:07;43.87;;;22.97;;
21166;SDS011;10741;52.272;9.580;2023-03-03T15:40:57;43.70;;;22.83;;
21166;SDS011;10741;52.272;9.580;2023-03-03T15:43:42;47.37;;;23.03;;
21166;SDS011;10741;52.272;9.580;2023-03-03T15:50:03;43.47;;;21.80;;
21166;SDS011;10741;52.272;9.580;2023-03-03T16:01:31;42.00;;;21.30;;
21166;SDS011;10741;52.272;9.580;2023-03-03T16:04:12;44.87;;;22.97;;
21166;SDS011;10741;52.272;9.580;2023-03-03T16:06:48;42.37;;;21.67;;
21166;SDS011;10741;52.272;9.580;2023-03-03T16:12:31;40.73;;;20.73;;
21166;SDS011;10741;52.272;9.580;2023-03-03T16:15:02;37.93;;;19.30;;
21166;SDS011;10741;52.272;9.580;2023-03-03T16:17:46;40.97;;;20.50;;
21166;SDS011;10741;52.272;9.580;2023-03-03T16:21:04;31.83;;;17.77;;
21166;SDS011;10741;52.272;9.580;2023-03-03T16:23:23;33.80;;;16.83;;
21166;SDS011;10741;52.272;9.580;2023-03-03T16:35:01;31.87;;;17.50;;
21166;SDS011;10741;52.272;9.580;2023-03-03T16:40:19;31.07;;;17.17;;
21166;SDS011;10741;52.272;9.580;2023-03-03T16:42:47;30.77;;;16.87;;
21166;SDS011;10741;52.272;9.580;2023-03-03T16:45:22;35.47;;;18.57;;
21166;SDS011;10741;52.272;9.580;2023-03-03T16:50:28;32.27;;;17.90;;
21166;SDS011;10741;52.272;9.580;2023-03-03T16:56:08;32.27;;;17.90;;
21166;SDS011;10741;52.272;9.580;2023-03-03T17:02:17;32.50;;;17.60;;
21166;SDS011;10741;52.272;9.580;2023-03-03T17:04:50;30.43;;;16.67;;
21166;SDS011;10741;52.272;9.580;2023-03-03T17:13:12;30.27;;;17.07;;
21166;SDS011;10741;52.272;9.580;2023-03-03T17:16:01;30.83;;;16.67;;
21166;SDS011;10741;52.272;9.580;2023-03-03T17:32:54;32.60;;;16.47;;
21166;SDS011;10741;52.272;9.580;2023-03-03T17:42:23;31.40;;;16.23;;
21166;SDS011;10741;52.272;9.580;2023-03-03T17:44:24;32.47;;;16.27;;
21166;SDS011;10741;52.272;9.580;2023-03-03T17:47:06;30.40;;;15.80;;
21166;SDS011;10741;52.272;9.580;2023-03-03T17:49:49;32.03;;;16.33;;
21166;SDS011;10741;52.272;9.580;2023-03-03T18:19:21;22.07;;;12.63;;
21166;SDS011;10741;52.272;9.580;2023-03-03T18:22:23;21.83;;;12.70;;
21166;SDS011;10741;52.272;9.580;2023-03-03T18:25:00;25.33;;;12.73;;
21166;SDS011;10741;52.272;9.580;2023-03-03T18:27:33;22.30;;;11.90;;
21166;SDS011;10741;52.272;9.580;2023-03-03T18:35:34;18.60;;;11.63;;
21166;SDS011;10741;52.272;9.580;2023-03-03T18:46:07;22.37;;;11.63;;
21166;SDS011;10741;52.272;9.580;2023-03-03T18:54:00;18.93;;;10.60;;
21166;SDS011;10741;52.272;9.580;2023-03-03T18:59:55;18.33;;;10.57;;
21166;SDS011;10741;52.272;9.580;2023-03-03T19:04:54;21.90;;;10.60;;
21166;SDS011;10741;52.272;9.580;2023-03-03T19:10:06;19.13;;;9.80;;
21166;SDS011;10741;52.272;9.580;2023-03-03T19:12:52;17.67;;;11.47;;
21166;SDS011;10741;52.272;9.580;2023-03-03T19:20:53;17.90;;;10.37;;
21166;SDS011;10741;52.272;9.580;2023-03-03T19:23:21;19.37;;;9.77;;
21166;SDS011;10741;52.272;9.580;2023-03-03T19:31:27;16.73;;;9.87;;
21166;SDS011;10741;52.272;9.580;2023-03-03T19:34:29;17.10;;;9.13;;
21166;SDS011;10741;52.272;9.580;2023-03-03T19:45:13;14.73;;;8.93;;
21166;SDS011;10741;52.272;9.580;2023-03-03T19:47:43;14.57;;;8.67;;
21166;SDS011;10741;52.272;9.580;2023-03-03T19:58:48;15.83;;;8.23;;
21166;SDS011;10741;52.272;9.580;2023-03-03T20:01:25;13.33;;;8.17;;
21166;SDS011;10741;52.272;9.580;2023-03-03T20:04:11;15.93;;;8.57;;
21166;SDS011;10741;52.272;9.580;2023-03-03T20:06:54;14.43;;;8.73;;
21166;SDS011;10741;52.272;9.580;2023-03-03T20:12:22;13.07;;;8.90;;
21166;SDS011;10741;52.272;9.580;2023-03-03T20:14:59;15.87;;;9.37;;
21166;SDS011;10741;52.272;9.580;2023-03-03T20:25:54;15.23;;;8.90;;
21166;SDS011;10741;52.272;9.580;2023-03-03T20:31:49;12.93;;;8.43;;
21166;SDS011;10741;52.272;9.580;2023-03-03T20:34:52;11.90;;;7.67;;
21166;SDS011;10741;52.272;9.580;2023-03-03T20:54:31;11.27;;;6.70;;
21166;SDS011;10741;52.272;9.580;2023-03-03T20:57:59;11.33;;;6.70;;
21166;SDS011;10741;52.272;9.580;2023-03-03T21:05:32;8.60;;;5.77;;
21166;SDS011;10741;52.272;9.580;2023-03-03T21:08:02;10.67;;;5.80;;
21166;SDS011;10741;52.272;9.580;2023-03-03T21:10:33;10.20;;;5.73;;
21166;SDS011;10741;52.272;9.580;2023-03-03T21:16:05;8.77;;;5.40;;
21166;SDS011;10741;52.272;9.580;2023-03-03T21:18:36;12.70;;;6.40;;
21166;SDS011;10741;52.272;9.580;2023-03-03T21:21:02;11.60;;;6.13;;
21166;SDS011;10741;52.272;9.580;2023-03-03T21:23:28;9.07;;;5.13;;
21166;SDS011;10741;52.272;9.580;2023-03-03T21:25:55;14.10;;;5.77;;
21166;SDS011;10741;52.272;9.580;2023-03-03T21:28:31;13.57;;;5.47;;
21166;SDS011;10741;52.272;9.580;2023-03-03T21:30:59;11.93;;;5.70;;
21166;SDS011;10741;52.272;9.580;2023-03-03T21:36:05;11.03;;;5.90;;
21166;SDS011;10741;52.272;9.580;2023-03-03T21:38:31;14.53;;;5.67;;
21166;SDS011;10741;52.272;9.580;2023-03-03T21:40:59;13.63;;;5.10;;
21166;SDS011;10741;52.272;9.580;2023-03-03T21:43:36;10.03;;;5.00;;